DTTF/GAF METAR and TAF weather

Enter ICAO airport designator
Station Type Date Time Source
DTTF METAR 2019/12/12 12:00 UTC NOAA

DTTF 121200Z 27004KT 170V330 9999 SCT026 17/02 Q1017 NOSIG


Station Type Date Time Source
DTTF Decoded METAR 2019/12/12 12:00 UTC NOAA

Gafsa, Tunisia (DTTF) 34-25N 008-49E 314M
Dec 12, 2019 - 07:00 AM EST / 2019.12.12 1200 UTC
Wind: from the W (270 degrees) at 5 MPH (4 KT) (direction variable):0
Visibility: greater than 7 mile(s):0
Sky conditions: partly cloudy
Temperature: 62 F (17 C)
Dew Point: 35 F (2 C)
Relative Humidity: 36%
Pressure (altimeter): 30.03 in. Hg (1017 hPa)
ob: DTTF 121200Z 27004KT 170V330 9999 SCT026 17/02 Q1017 NOSIG
cycle: 12

Station Type Date Time Source
DTTF TAF 2018/07/22 13:33 UTC NOAA

TAF DTTF 221200Z 2213/2322 22010KT 7000 NSC PROB30
TEMPO 2216/2220 4000 -TSRA FEW026CB

Example: see airport list